Time;durP1;ratioP1;P1;durP2;ratioP2;P2;SDS_P1;SDS_P2;PMS_P1;PMS_P2;Temp;Humidity;BMP_temperature;BMP_pressure;BME280_temperature;BME280_humidity;BME280_pressure;Samples;Min_cycle;Max_cycle;Signal;HPM_P1;HPM_P2
2022/04/28 00:00:05;;;;;;;11.95;5.07;;;4.70;99.90;;;;;;4993078;28;20818;-76
2022/04/28 00:02:31;;;;;;;19.92;6.22;;;4.70;99.90;;;;;;4993391;28;20346;-76
2022/04/28 00:04:56;;;;;;;8.48;5.07;;;4.70;99.90;;;;;;4993498;28;20042;-76
2022/04/28 00:07:22;;;;;;;12.00;4.95;;;4.60;99.90;;;;;;4993652;28;20042;-76
2022/04/28 00:09:47;;;;;;;9.55;5.03;;;4.50;99.90;;;;;;4992908;28;20073;-76
2022/04/28 00:12:14;;;;;;;11.65;5.25;;;4.40;99.90;;;;;;4993392;28;20181;-75
2022/04/28 00:14:42;;;;;;;6.45;4.43;;;4.30;99.90;;;;;;4993264;28;20482;-76
2022/04/28 00:17:08;;;;;;;7.03;4.75;;;4.30;99.90;;;;;;4993291;28;20057;-76
2022/04/28 00:19:34;;;;;;;10.55;5.45;;;4.30;99.90;;;;;;4993138;28;20062;-76
2022/04/28 00:21:59;;;;;;;15.70;5.47;;;4.20;99.90;;;;;;4993210;28;20469;-76
2022/04/28 00:24:24;;;;;;;8.80;5.13;;;4.10;99.90;;;;;;4993318;28;20433;-76
2022/04/28 00:26:50;;;;;;;11.07;5.00;;;4.10;99.90;;;;;;4993240;28;20063;-76
2022/04/28 00:29:15;;;;;;;12.18;5.13;;;4.00;99.90;;;;;;4993101;28;20042;-76
2022/04/28 00:31:41;;;;;;;13.55;5.85;;;3.90;99.90;;;;;;4993128;28;20105;-76
2022/04/28 00:34:06;;;;;;;9.63;5.25;;;3.90;99.90;;;;;;4993545;28;20046;-75
2022/04/28 00:36:32;;;;;;;12.13;5.72;;;3.80;99.90;;;;;;4993088;28;20057;-76
2022/04/28 00:38:57;;;;;;;13.52;5.88;;;3.80;99.90;;;;;;4993464;28;20081;-76
2022/04/28 00:41:23;;;;;;;12.43;5.32;;;3.80;99.90;;;;;;4992880;28;20071;-76
2022/04/28 00:43:51;;;;;;;11.60;5.53;;;3.80;99.90;;;;;;5011097;28;20081;-76
2022/04/28 00:46:17;;;;;;;12.27;5.32;;;3.70;99.90;;;;;;4993432;28;20512;-76
2022/04/28 00:51:29;;;;;;;10.35;5.60;;;3.70;99.90;;;;;;4992794;28;20088;-76
2022/04/28 00:53:57;;;;;;;10.13;5.30;;;3.60;99.90;;;;;;4993008;28;20085;-76
2022/04/28 00:56:23;;;;;;;11.18;5.55;;;3.50;99.90;;;;;;4993283;28;20481;-76
2022/04/28 00:58:49;;;;;;;13.38;6.10;;;3.50;99.90;;;;;;4992929;28;20053;-76
2022/04/28 01:01:16;;;;;;;13.77;6.07;;;3.50;99.90;;;;;;4992878;28;20104;-76
2022/04/28 01:03:41;;;;;;;11.30;5.85;;;3.40;99.90;;;;;;4976853;28;20075;-76
2022/04/28 01:06:07;;;;;;;16.23;5.85;;;3.50;99.90;;;;;;4992944;28;20041;-76
2022/04/28 01:08:32;;;;;;;12.50;5.25;;;3.60;99.90;;;;;;4994143;28;20042;-76
2022/04/28 01:10:59;;;;;;;7.75;5.22;;;3.60;99.90;;;;;;4996261;28;20483;-76
2022/04/28 01:13:24;;;;;;;9.80;4.95;;;3.70;99.90;;;;;;4996757;28;20029;-76
2022/04/28 01:15:50;;;;;;;13.20;5.53;;;3.60;99.90;;;;;;4996357;28;20042;-76
2022/04/28 01:18:19;;;;;;;11.73;5.88;;;3.60;99.90;;;;;;4996345;28;20042;-76
2022/04/28 01:20:44;;;;;;;15.23;6.05;;;3.50;99.90;;;;;;4996105;28;20076;-76
2022/04/28 01:23:11;;;;;;;19.60;6.50;;;3.50;99.90;;;;;;4996461;28;20121;-76
2022/04/28 01:25:37;;;;;;;9.65;5.00;;;3.40;99.90;;;;;;4996307;28;20052;-76
2022/04/28 01:28:02;;;;;;;15.85;5.72;;;3.30;99.90;;;;;;4996276;28;20045;-76
2022/04/28 01:30:28;;;;;;;19.27;6.68;;;3.30;99.90;;;;;;4995847;28;20112;-76
2022/04/28 01:32:57;;;;;;;15.35;6.20;;;3.30;99.90;;;;;;4996179;28;20041;-76
2022/04/28 01:35:23;;;;;;;12.95;5.38;;;3.40;99.90;;;;;;4980220;28;20042;-76
2022/04/28 01:37:48;;;;;;;10.55;5.03;;;3.40;99.90;;;;;;4996303;28;20045;-76
2022/04/28 01:40:14;;;;;;;12.60;5.63;;;3.40;99.90;;;;;;5007023;28;20069;-76
2022/04/28 01:42:50;;;;;;;14.65;5.93;;;3.40;99.90;;;;;;5017596;28;20073;-75
2022/04/28 01:45:16;;;;;;;18.33;6.85;;;3.50;99.90;;;;;;4997635;28;20576;-76
2022/04/28 01:47:42;;;;;;;13.25;5.95;;;3.40;99.90;;;;;;5012261;28;20497;-76
2022/04/28 01:50:10;;;;;;;9.98;5.30;;;3.50;99.90;;;;;;4995682;28;20128;-76
2022/04/28 01:55:21;;;;;;;9.90;5.93;;;3.40;99.90;;;;;;4995817;28;20089;-76
2022/04/28 01:57:47;;;;;;;9.23;6.07;;;3.40;99.90;;;;;;4995868;28;20046;-76
2022/04/28 02:00:13;;;;;;;9.18;5.35;;;3.40;99.90;;;;;;4995409;28;20038;-75
2022/04/28 02:02:39;;;;;;;15.43;5.72;;;3.40;99.90;;;;;;4995662;28;20046;-76
2022/04/28 02:05:07;;;;;;;10.20;5.25;;;3.30;99.90;;;;;;4995663;28;20116;-76
2022/04/28 02:07:33;;;;;;;11.60;5.13;;;3.20;99.90;;;;;;4995542;28;20120;-76
2022/04/28 02:10:00;;;;;;;13.05;5.72;;;3.20;99.90;;;;;;4995139;28;20447;-76
2022/04/28 02:12:26;;;;;;;13.27;5.32;;;3.10;99.90;;;;;;4979147;28;20048;-76
2022/04/28 02:14:53;;;;;;;14.90;5.72;;;3.00;99.90;;;;;;4979535;28;20089;-76
2022/04/28 02:17:20;;;;;;;12.65;5.90;;;3.00;99.90;;;;;;4995309;28;20117;-76
2022/04/28 02:19:46;;;;;;;12.55;5.75;;;3.10;99.90;;;;;;4994476;28;20138;-76
2022/04/28 02:22:11;;;;;;;11.68;5.82;;;3.00;99.90;;;;;;4995274;28;20129;-76
2022/04/28 02:24:37;;;;;;;13.43;4.88;;;3.00;99.90;;;;;;5013171;28;20034;-76
2022/04/28 02:27:03;;;;;;;12.25;5.72;;;2.90;99.90;;;;;;4995089;28;20045;-76
2022/04/28 02:29:28;;;;;;;13.35;6.05;;;3.00;99.90;;;;;;4995174;28;20084;-76
2022/04/28 02:31:54;;;;;;;14.50;5.38;;;3.10;99.90;;;;;;4994900;28;20137;-76
2022/04/28 02:34:19;;;;;;;11.82;5.68;;;3.00;99.90;;;;;;4995060;28;20038;-76
2022/04/28 02:36:45;;;;;;;15.55;6.00;;;2.90;99.90;;;;;;4994997;28;20468;-76
2022/04/28 02:39:12;;;;;;;13.45;5.38;;;2.90;99.90;;;;;;5012320;28;20130;-76
2022/04/28 02:41:38;;;;;;;9.50;4.95;;;2.90;99.90;;;;;;4994548;28;20050;-76
2022/04/28 02:44:04;;;;;;;14.25;6.55;;;2.90;99.90;;;;;;4995117;28;20354;-76
2022/04/28 02:46:31;;;;;;;13.63;5.47;;;2.90;99.90;;;;;;4994827;28;20048;-76
2022/04/28 02:48:57;;;;;;;10.48;4.97;;;3.00;99.90;;;;;;4994668;28;20557;-76
2022/04/28 02:51:22;;;;;;;12.57;5.38;;;3.00;99.90;;;;;;4994395;28;20077;-76
2022/04/28 02:53:48;;;;;;;12.70;5.57;;;3.00;99.90;;;;;;4994877;28;20041;-76
2022/04/28 02:56:13;;;;;;;9.88;5.70;;;3.10;99.90;;;;;;4978442;28;20491;-76
2022/04/28 02:58:39;;;;;;;13.27;5.97;;;3.10;99.90;;;;;;4994411;28;20048;-76
2022/04/28 03:01:04;;;;;;;13.00;6.45;;;3.20;99.90;;;;;;4994146;28;20096;-76
2022/04/28 03:03:30;;;;;;;17.77;6.03;;;3.20;99.90;;;;;;4994476;28;20466;-76
2022/04/28 03:11:24;;;;;;;15.45;5.88;;;3.50;99.90;;;;;;4993916;28;20069;-76
2022/04/28 03:13:50;;;;;;;11.52;5.10;;;3.50;99.90;;;;;;5011963;28;20037;-76
2022/04/28 03:16:16;;;;;;;10.93;5.20;;;3.60;99.90;;;;;;5011907;28;20505;-76
2022/04/28 03:18:42;;;;;;;14.88;5.60;;;3.70;99.90;;;;;;4994248;28;20084;-76
2022/04/28 03:21:08;;;;;;;12.38;5.90;;;3.80;99.90;;;;;;5011433;28;20441;-76
2022/04/28 03:23:34;;;;;;;11.95;5.28;;;3.90;99.90;;;;;;4994050;28;20052;-76
2022/04/28 03:26:00;;;;;;;8.88;5.07;;;3.90;99.90;;;;;;4994280;28;20054;-76
2022/04/28 03:28:26;;;;;;;13.68;5.57;;;4.00;99.90;;;;;;4994088;28;20052;-76
2022/04/28 03:30:51;;;;;;;13.07;5.00;;;4.10;99.90;;;;;;4992920;28;20038;-76
2022/04/28 03:33:18;;;;;;;14.27;6.13;;;4.20;99.90;;;;;;4994171;28;20038;-76
2022/04/28 03:35:44;;;;;;;9.38;5.32;;;4.30;99.90;;;;;;4994069;28;20049;-76
2022/04/28 03:38:13;;;;;;;13.95;6.70;;;4.30;99.90;;;;;;4993782;28;20050;-76
2022/04/28 03:40:42;;;;;;;17.83;5.55;;;4.40;99.90;;;;;;4993713;28;20061;-76
2022/04/28 03:43:11;;;;;;;12.05;5.85;;;4.50;99.90;;;;;;4993822;28;20583;-76
2022/04/28 03:45:38;;;;;;;11.60;4.93;;;4.50;99.90;;;;;;4994249;28;20050;-76
2022/04/28 03:48:04;;;;;;;16.13;5.88;;;4.70;99.90;;;;;;4977290;28;20084;-76
2022/04/28 03:50:30;;;;;;;10.23;5.45;;;4.70;99.90;;;;;;4993342;28;20081;-76
2022/04/28 03:52:57;;;;;;;16.08;4.95;;;4.80;99.90;;;;;;4994051;28;20112;-76
2022/04/28 03:55:23;;;;;;;9.60;5.60;;;4.80;99.90;;;;;;4993519;28;20054;-76
2022/04/28 03:57:49;;;;;;;12.05;5.45;;;4.90;99.90;;;;;;4993692;28;20041;-76
2022/04/28 04:00:14;;;;;;;12.25;5.25;;;4.90;99.90;;;;;;4993124;28;20044;-76
2022/04/28 04:02:40;;;;;;;11.75;6.03;;;5.00;99.90;;;;;;4993426;28;20046;-76
2022/04/28 04:05:06;;;;;;;10.82;5.43;;;5.00;99.90;;;;;;5011128;28;20041;-76
2022/04/28 04:07:33;;;;;;;14.20;5.28;;;5.10;99.90;;;;;;4993708;28;20052;-76
2022/04/28 04:09:59;;;;;;;10.88;5.22;;;5.10;99.90;;;;;;4992991;28;20493;-76
2022/04/28 04:12:26;;;;;;;9.98;5.47;;;5.20;99.90;;;;;;4993442;28;20038;-76
2022/04/28 04:14:52;;;;;;;10.77;5.43;;;5.20;99.90;;;;;;4993570;28;20061;-76
2022/04/28 04:17:19;;;;;;;10.73;5.80;;;5.20;99.90;;;;;;4993450;28;20070;-77
2022/04/28 04:19:44;;;;;;;10.93;6.20;;;5.30;99.90;;;;;;5030115;28;20042;-76
2022/04/28 04:22:10;;;;;;;9.88;5.70;;;5.40;99.90;;;;;;5011408;28;20053;-76
2022/04/28 04:24:35;;;;;;;10.90;5.30;;;5.40;99.90;;;;;;4993491;28;20046;-76
2022/04/28 04:27:01;;;;;;;8.60;5.25;;;5.50;99.90;;;;;;4993563;28;20065;-76
2022/04/28 04:29:27;;;;;;;9.00;5.50;;;5.40;99.90;;;;;;4992984;28;20493;-76
2022/04/28 04:34:36;;;;;;;7.45;4.60;;;5.50;99.90;;;;;;4993149;28;20056;-76
2022/04/28 04:37:02;;;;;;;9.82;5.25;;;5.50;99.90;;;;;;4993210;28;20125;-76
2022/04/28 04:39:27;;;;;;;8.38;4.65;;;5.60;99.90;;;;;;5010565;28;20421;-76
2022/04/28 04:41:53;;;;;;;10.82;4.72;;;5.60;99.90;;;;;;4993550;28;20148;-76
2022/04/28 04:44:18;;;;;;;11.63;5.03;;;5.70;99.90;;;;;;4996986;28;20052;-76
2022/04/28 04:46:44;;;;;;;11.93;5.35;;;5.70;99.90;;;;;;4997033;28;20242;-76
2022/04/28 04:49:10;;;;;;;9.43;4.93;;;5.70;99.90;;;;;;4996896;28;20141;-77
2022/04/28 04:51:36;;;;;;;10.13;4.90;;;5.70;99.90;;;;;;4996512;28;20056;-77
2022/04/28 04:54:01;;;;;;;9.48;5.03;;;5.80;99.90;;;;;;4996753;28;20054;-76
2022/04/28 04:56:27;;;;;;;10.95;4.97;;;5.80;99.90;;;;;;4996875;28;20073;-76
2022/04/28 04:58:52;;;;;;;9.65;5.40;;;5.90;99.90;;;;;;4996531;28;20056;-76
2022/04/28 05:01:18;;;;;;;13.90;5.72;;;5.90;99.90;;;;;;4996400;28;20509;-76
2022/04/28 05:03:43;;;;;;;9.82;4.93;;;6.00;99.90;;;;;;4996653;28;20140;-76
2022/04/28 05:06:09;;;;;;;11.63;5.88;;;6.10;99.90;;;;;;4996777;28;20124;-76
2022/04/28 05:08:35;;;;;;;9.95;5.30;;;6.10;99.90;;;;;;4996582;28;20045;-76
2022/04/28 05:11:00;;;;;;;11.45;5.15;;;6.20;99.90;;;;;;4996226;28;20058;-76
2022/04/28 05:13:26;;;;;;;10.15;5.10;;;6.40;99.90;;;;;;4996664;28;20046;-76
2022/04/28 05:15:51;;;;;;;11.13;4.80;;;6.40;99.90;;;;;;4996477;28;20041;-76
2022/04/28 05:18:17;;;;;;;8.50;4.97;;;6.40;99.90;;;;;;4996294;28;20444;-76
2022/04/28 05:20:43;;;;;;;8.60;4.85;;;6.50;99.90;;;;;;4996067;28;20103;-76
2022/04/28 05:23:08;;;;;;;14.77;5.80;;;6.50;99.90;;;;;;4996439;28;20046;-76
2022/04/28 05:25:34;;;;;;;13.73;6.15;;;6.60;99.90;;;;;;4996428;28;20044;-76
2022/04/28 05:27:59;;;;;;;10.05;4.88;;;6.70;99.90;;;;;;4996267;28;20057;-76
2022/04/28 05:30:25;;;;;;;7.70;5.10;;;6.80;99.90;;;;;;4995881;28;20050;-76
2022/04/28 05:32:50;;;;;;;16.67;5.55;;;6.90;99.90;;;;;;4996549;28;20049;-76
2022/04/28 05:35:16;;;;;;;16.33;5.28;;;6.90;99.90;;;;;;4996425;28;20496;-77
2022/04/28 05:37:42;;;;;;;8.32;4.63;;;7.00;99.90;;;;;;4996093;28;20494;-77
2022/04/28 05:40:08;;;;;;;9.98;5.03;;;7.10;99.90;;;;;;4995819;28;20512;-77
2022/04/28 05:48:04;;;;;;;11.10;5.43;;;7.40;99.90;;;;;;4995952;28;20048;-78
2022/04/28 05:50:29;;;;;;;14.13;6.13;;;7.40;99.90;;;;;;4995532;28;20426;-77
2022/04/28 05:52:55;;;;;;;11.05;4.90;;;7.50;99.90;;;;;;4995923;28;20041;-77
2022/04/28 05:55:20;;;;;;;10.73;4.55;;;7.60;99.90;;;;;;4994957;28;20048;-77
2022/04/28 05:57:46;;;;;;;10.32;3.90;;;7.60;99.90;;;;;;4995721;28;20408;-77
2022/04/28 06:00:12;;;;;;;9.35;4.32;;;7.70;99.90;;;;;;4995672;28;20452;-77
2022/04/28 06:02:37;;;;;;;9.85;4.53;;;7.80;99.90;;;;;;4996000;28;20551;-78
2022/04/28 06:05:04;;;;;;;11.95;4.38;;;7.80;99.90;;;;;;4995838;28;20045;-77
2022/04/28 06:07:29;;;;;;;9.60;4.65;;;7.80;99.90;;;;;;4995722;28;20042;-77
2022/04/28 06:09:55;;;;;;;10.00;4.65;;;7.90;99.90;;;;;;4995170;28;20042;-77
2022/04/28 06:12:23;;;;;;;12.43;4.75;;;7.90;99.90;;;;;;4995630;28;20222;-77
2022/04/28 06:14:49;;;;;;;9.95;5.07;;;7.90;99.90;;;;;;4995578;28;20560;-77
2022/04/28 06:17:14;;;;;;;9.45;4.50;;;8.00;99.90;;;;;;4995934;28;20080;-77
2022/04/28 06:19:40;;;;;;;9.98;4.82;;;8.00;99.90;;;;;;5012785;28;20045;-77
2022/04/28 06:22:05;;;;;;;11.18;5.07;;;8.00;99.90;;;;;;4995243;28;20081;-77
2022/04/28 06:24:31;;;;;;;10.82;4.30;;;8.10;99.90;;;;;;4995642;28;20107;-77
2022/04/28 06:26:56;;;;;;;11.50;4.90;;;8.10;99.90;;;;;;4995695;28;20565;-77
2022/04/28 06:29:22;;;;;;;9.05;5.07;;;8.20;99.90;;;;;;4995070;28;20128;-77
2022/04/28 06:31:47;;;;;;;11.40;4.63;;;8.30;99.90;;;;;;4979036;28;20128;-77
2022/04/28 06:34:13;;;;;;;12.15;4.70;;;8.40;99.90;;;;;;4995461;28;20033;-78
2022/04/28 06:36:39;;;;;;;18.55;5.43;;;8.40;99.90;;;;;;4979031;28;20045;-79
2022/04/28 06:39:04;;;;;;;11.95;4.45;;;8.50;99.90;;;;;;4994736;28;20624;-79
2022/04/28 06:41:30;;;;;;;6.50;4.32;;;8.50;99.90;;;;;;4994770;28;20074;-78
2022/04/28 06:43:56;;;;;;;9.27;4.70;;;8.60;99.90;;;;;;4994784;28;20120;-78
2022/04/28 06:46:22;;;;;;;10.05;4.40;;;8.70;99.90;;;;;;4995091;28;20112;-78
2022/04/28 06:48:48;;;;;;;5.75;3.90;;;8.70;99.90;;;;;;4994806;28;20564;-77
2022/04/28 06:51:15;;;;;;;10.93;4.35;;;8.80;99.90;;;;;;5012007;28;20237;-78
2022/04/28 06:53:41;;;;;;;7.43;4.13;;;8.80;99.90;;;;;;4994975;28;20099;-78
2022/04/28 06:56:07;;;;;;;12.75;4.60;;;8.90;99.90;;;;;;4994677;28;20045;-78
2022/04/28 06:58:33;;;;;;;8.98;3.92;;;8.90;99.90;;;;;;4998436;28;20444;-78
2022/04/28 07:00:58;;;;;;;9.70;4.25;;;9.00;99.90;;;;;;5011536;28;20077;-79
2022/04/28 07:03:24;;;;;;;11.35;4.25;;;9.00;99.90;;;;;;5009775;28;20102;-78
2022/04/28 07:05:50;;;;;;;7.82;3.83;;;9.00;99.90;;;;;;5012302;28;20477;-78
2022/04/28 07:08:16;;;;;;;10.40;4.28;;;9.10;99.90;;;;;;5013213;28;20049;-78
2022/04/28 07:10:41;;;;;;;10.60;4.05;;;9.10;99.90;;;;;;5016664;28;20068;-79
2022/04/28 07:13:10;;;;;;;9.95;3.45;;;9.10;99.90;;;;;;5048079;28;20053;-77
2022/04/28 07:15:37;;;;;;;7.88;3.85;;;9.10;99.90;;;;;;5028159;28;20377;-79
2022/04/28 07:18:06;;;;;;;6.32;3.80;;;9.20;99.90;;;;;;5013876;28;20037;-79
2022/04/28 07:20:33;;;;;;;7.35;3.58;;;9.20;99.90;;;;;;5012906;28;20056;-78
2022/04/28 07:22:59;;;;;;;7.57;3.45;;;9.30;99.90;;;;;;5012867;28;20123;-79
2022/04/28 07:25:26;;;;;;;10.55;3.47;;;9.30;99.90;;;;;;5033108;28;20511;-79
2022/04/28 07:27:52;;;;;;;10.93;3.53;;;9.40;99.90;;;;;;5033374;28;20044;-79
2022/04/28 07:30:18;;;;;;;10.60;4.05;;;9.40;99.90;;;;;;5033284;28;20064;-79
2022/04/28 07:32:44;;;;;;;7.45;3.63;;;9.50;99.90;;;;;;5018194;28;20080;-79
2022/04/28 07:35:10;;;;;;;8.98;3.65;;;9.60;99.90;;;;;;5022259;28;20108;-79
2022/04/28 07:37:35;;;;;;;10.55;3.45;;;9.70;99.90;;;;;;5022716;28;20452;-79
2022/04/28 07:40:01;;;;;;;10.32;3.65;;;9.80;99.90;;;;;;5011398;28;20056;-79
2022/04/28 07:42:26;;;;;;;8.55;3.50;;;9.90;99.90;;;;;;5015965;28;20047;-79
2022/04/28 07:44:52;;;;;;;11.98;4.00;;;9.90;99.90;;;;;;5004921;28;20123;-79
2022/04/28 07:47:18;;;;;;;11.50;3.72;;;10.00;99.90;;;;;;5030173;28;20048;-78
2022/04/28 07:49:44;;;;;;;8.50;3.42;;;10.10;99.90;;;;;;5029601;28;20416;-79
2022/04/28 07:52:09;;;;;;;11.57;3.88;;;10.10;99.90;;;;;;5031523;28;20041;-79
2022/04/28 07:54:35;;;;;;;8.48;3.63;;;10.20;99.90;;;;;;5013275;28;20045;-79
2022/04/28 07:57:01;;;;;;;9.80;4.15;;;10.30;99.90;;;;;;5029944;28;20052;-79
2022/04/28 07:59:26;;;;;;;10.65;4.45;;;10.40;99.90;;;;;;5029500;28;20049;-79
2022/04/28 08:01:52;;;;;;;7.75;4.03;;;10.50;99.90;;;;;;5029852;28;20385;-79
2022/04/28 08:04:17;;;;;;;11.75;4.35;;;10.70;99.90;;;;;;5029386;28;20047;-79
2022/04/28 08:06:43;;;;;;;10.38;3.75;;;10.70;99.90;;;;;;5025094;28;20064;-79
2022/04/28 08:09:08;;;;;;;10.50;3.75;;;10.90;99.90;;;;;;5009707;28;20069;-79
2022/04/28 08:11:34;;;;;;;8.30;3.95;;;11.10;99.90;;;;;;5020801;28;20128;-79
2022/04/28 08:13:59;;;;;;;10.43;3.90;;;11.70;99.90;;;;;;5012973;28;20038;-79
2022/04/28 08:16:25;;;;;;;10.10;3.90;;;12.40;99.90;;;;;;5011638;28;20451;-79
2022/04/28 08:18:51;;;;;;;13.65;4.40;;;13.10;99.90;;;;;;5025043;28;20033;-80
2022/04/28 08:21:16;;;;;;;7.65;3.35;;;13.30;99.90;;;;;;5022515;28;20053;-78
2022/04/28 08:23:42;;;;;;;6.07;2.95;;;13.20;99.90;;;;;;5038904;28;20040;-79
2022/04/28 08:26:07;;;;;;;7.00;3.42;;;13.00;99.90;;;;;;5022900;28;20033;-79
2022/04/28 08:28:33;;;;;;;8.30;3.53;;;12.90;99.90;;;;;;5057185;28;20183;-79
2022/04/28 08:30:59;;;;;;;8.30;2.97;;;12.60;99.90;;;;;;5023673;28;20141;-79
2022/04/28 08:33:24;;;;;;;8.63;3.80;;;12.30;99.90;;;;;;5027699;28;20042;-79
2022/04/28 08:35:50;;;;;;;8.00;3.40;;;12.00;99.90;;;;;;5019274;28;20033;-78
2022/04/28 08:38:16;;;;;;;12.48;3.90;;;11.80;99.90;;;;;;5025180;28;20552;-79
2022/04/28 08:40:44;;;;;;;8.73;3.08;;;11.60;99.90;;;;;;5030480;28;20412;-80
2022/04/28 08:43:11;;;;;;;8.88;3.50;;;11.60;99.90;;;;;;5019839;28;20057;-79
2022/04/28 08:48:31;;;;;;;7.33;3.10;;;11.50;99.90;;;;;;5023772;28;20053;-79
2022/04/28 08:50:58;;;;;;;6.38;3.08;;;11.40;99.90;;;;;;5016917;28;20050;-79
2022/04/28 08:53:24;;;;;;;8.10;3.40;;;11.40;99.90;;;;;;5035587;28;20050;-79
2022/04/28 08:55:50;;;;;;;41.63;20.63;;;11.40;99.90;;;;;;5019187;28;20561;-78
2022/04/28 08:58:15;;;;;;;24.20;10.75;;;11.30;99.90;;;;;;5017230;28;20041;-78
2022/04/28 09:00:41;;;;;;;8.63;4.45;;;11.40;99.90;;;;;;5023598;28;20071;-78
2022/04/28 09:03:06;;;;;;;6.47;2.70;;;11.40;99.90;;;;;;5038666;28;20480;-78
2022/04/28 09:05:33;;;;;;;8.18;2.63;;;11.50;99.90;;;;;;5026020;28;20099;-78
2022/04/28 09:07:59;;;;;;;6.97;2.42;;;11.50;99.90;;;;;;5026604;28;20041;-78
2022/04/28 09:10:32;;;;;;;5.78;2.40;;;11.60;99.90;;;;;;5016037;28;20492;-78
2022/04/28 09:15:50;;;;;;;9.75;2.85;;;11.70;99.90;;;;;;5019182;28;20115;-78
2022/04/28 09:18:20;;;;;;;8.88;2.58;;;11.80;99.90;;;;;;5019100;28;20049;-78
2022/04/28 09:20:46;;;;;;;15.63;2.58;;;11.90;99.90;;;;;;5018656;28;20041;-78
2022/04/28 09:23:13;;;;;;;7.57;2.22;;;12.00;99.90;;;;;;5018952;28;20104;-78
2022/04/28 09:25:39;;;;;;;7.70;2.75;;;12.10;99.90;;;;;;5018868;28;20524;-78
2022/04/28 09:28:07;;;;;;;10.70;2.80;;;12.20;99.90;;;;;;5018215;28;20081;-79
2022/04/28 09:30:49;;;;;;;4.47;1.98;;;12.40;99.90;;;;;;5014583;28;20041;-79
2022/04/28 09:33:15;;;;;;;10.07;2.90;;;12.70;99.90;;;;;;5015922;28;20361;-79
2022/04/28 09:35:50;;;;;;;8.55;2.53;;;13.20;99.90;;;;;;5015587;28;20037;-79
2022/04/28 09:38:16;;;;;;;8.85;2.47;;;13.50;99.90;;;;;;5015676;28;20045;-79
2022/04/28 09:43:32;;;;;;;3.70;1.75;;;13.50;99.90;;;;;;5015495;28;20199;-78
2022/04/28 09:45:59;;;;;;;7.30;2.40;;;13.90;99.90;;;;;;4999312;28;20076;-79
2022/04/28 09:48:29;;;;;;;9.73;2.42;;;14.20;99.90;;;;;;5015297;28;20116;-78
2022/04/28 09:51:22;;;;;;;7.75;2.50;;;14.40;99.90;;;;;;5015288;28;20488;-79
2022/04/28 09:53:48;;;;;;;5.38;2.55;;;14.50;99.90;;;;;;5002469;28;20041;-80
2022/04/28 09:56:18;;;;;;;7.47;2.10;;;14.50;99.90;;;;;;5015472;28;20408;-79
2022/04/28 09:58:45;;;;;;;6.22;2.53;;;14.60;99.90;;;;;;5015141;28;20035;-78
2022/04/28 10:01:11;;;;;;;7.05;2.10;;;14.60;99.90;;;;;;5015322;28;20508;-79
2022/04/28 10:03:40;;;;;;;4.40;2.00;;;14.90;99.90;;;;;;5015177;28;20087;-79
2022/04/28 10:06:06;;;;;;;4.78;2.25;;;15.20;99.90;;;;;;5015477;28;20045;-78
2022/04/28 10:08:33;;;;;;;6.60;1.98;;;15.30;99.90;;;;;;5015164;28;20053;-79
2022/04/28 10:11:01;;;;;;;5.97;2.30;;;15.10;99.90;;;;;;5014960;28;20053;-78
2022/04/28 10:13:28;;;;;;;7.70;2.35;;;15.00;99.90;;;;;;5033080;28;20046;-78
2022/04/28 10:16:04;;;;;;;4.18;2.05;;;14.80;99.90;;;;;;5022540;28;20041;-79
2022/04/28 10:18:37;;;;;;;5.57;2.22;;;14.70;99.90;;;;;;5024964;28;20038;-78
2022/04/28 10:21:06;;;;;;;5.78;2.00;;;14.40;99.90;;;;;;5020298;28;20049;-78
2022/04/28 10:35:01;;;;;;;9.65;1.88;;;14.80;99.90;;;;;;5014537;28;20047;-79
2022/04/28 10:37:35;;;;;;;9.97;2.23;;;14.60;99.90;;;;;;5014747;28;20049;-78
2022/04/28 10:40:03;;;;;;;6.28;2.10;;;14.40;99.90;;;;;;5013869;28;20280;-78
2022/04/28 10:42:29;;;;;;;5.78;2.13;;;14.20;99.90;;;;;;4998196;28;20045;-78
2022/04/28 10:44:57;;;;;;;6.20;2.08;;;14.20;99.90;;;;;;5014789;28;20048;-79
2022/04/28 10:47:42;;;;;;;3.40;1.83;;;14.30;99.90;;;;;;5014537;28;20083;-79
2022/04/28 10:50:25;;;;;;;6.25;1.92;;;14.60;99.90;;;;;;5029854;28;20531;-78
2022/04/28 10:53:10;;;;;;;;;;;14.80;99.90;;;;;;5014825;28;20076;-78
2022/04/28 10:55:42;;;;;;;8.43;2.05;;;15.00;99.90;;;;;;5014365;28;20445;-78
2022/04/28 10:58:25;;;;;;;5.15;2.15;;;15.00;99.90;;;;;;5014275;28;20435;-79
2022/04/28 11:00:55;;;;;;;6.72;1.98;;;15.00;99.90;;;;;;5014219;28;20052;-77
2022/04/28 11:03:47;;;;;;;7.55;2.53;;;15.10;99.90;;;;;;5014212;28;20045;-78
2022/04/28 11:06:19;;;;;;;7.40;2.10;;;15.20;99.90;;;;;;5014420;28;20453;-78
2022/04/28 11:08:55;;;;;;;7.70;2.00;;;15.30;99.90;;;;;;5013878;28;20048;-78
2022/04/28 11:11:21;;;;;;;7.80;2.58;;;15.20;99.90;;;;;;4997523;28;20535;-77
2022/04/28 11:13:56;;;;;;;5.90;2.10;;;15.00;99.90;;;;;;5014021;28;20056;-78
2022/04/28 11:16:22;;;;;;;8.40;2.38;;;15.20;99.90;;;;;;5014289;28;20377;-78
2022/04/28 11:18:47;;;;;;;7.90;2.08;;;15.20;99.90;;;;;;5013581;28;20484;-78
2022/04/28 11:21:14;;;;;;;3.60;2.22;;;15.30;99.90;;;;;;5013851;28;20099;-78
2022/04/28 11:23:43;;;;;;;3.85;2.00;;;15.30;99.90;;;;;;5013696;28;20049;-78
2022/04/28 11:26:10;;;;;;;9.15;2.08;;;15.60;99.90;;;;;;5031341;28;20037;-78
2022/04/28 11:28:36;;;;;;;5.30;1.98;;;15.80;99.90;;;;;;4997413;28;20056;-78
2022/04/28 11:31:31;;;;;;;3.95;2.15;;;15.90;99.90;;;;;;5013415;28;20049;-77
2022/04/28 11:33:57;;;;;;;9.02;2.10;;;15.90;99.90;;;;;;5009073;28;20508;-78
2022/04/28 11:36:28;;;;;;;8.68;2.30;;;15.70;99.90;;;;;;5013664;28;20056;-78
2022/04/28 11:38:59;;;;;;;5.80;1.90;;;15.60;99.90;;;;;;5013397;28;20041;-78
2022/04/28 11:41:38;;;;;;;5.73;2.33;;;15.50;99.90;;;;;;4997080;28;20497;-78
2022/04/28 11:44:07;;;;;;;5.88;1.70;;;15.60;99.90;;;;;;4997358;28;20612;-77
2022/04/28 11:46:41;;;;;;;6.95;2.40;;;15.70;99.90;;;;;;5013898;28;20440;-78
2022/04/28 11:49:08;;;;;;;7.13;1.98;;;15.90;99.90;;;;;;4996894;28;20076;-78
2022/04/28 11:51:34;;;;;;;7.70;2.10;;;16.10;99.90;;;;;;5012741;28;20098;-79
2022/04/28 11:54:01;;;;;;;7.38;2.40;;;16.10;99.90;;;;;;5013171;28;20108;-78
2022/04/28 11:56:30;;;;;;;6.65;2.58;;;16.10;99.90;;;;;;5013411;28;20052;-77
2022/04/28 11:58:58;;;;;;;6.93;2.33;;;16.30;99.90;;;;;;5013056;28;20077;-78
2022/04/28 12:01:25;;;;;;;5.45;2.35;;;16.30;99.90;;;;;;5012828;28;20098;-78
2022/04/28 12:03:55;;;;;;;8.35;2.58;;;16.20;99.90;;;;;;5013277;28;20098;-78
2022/04/28 12:06:22;;;;;;;6.20;2.47;;;16.10;99.90;;;;;;5013243;28;20045;-78
2022/04/28 12:08:57;;;;;;;5.88;2.85;;;16.10;99.90;;;;;;5030624;28;20047;-77
2022/04/28 12:14:24;;;;;;;6.60;2.17;;;16.30;99.90;;;;;;5030700;28;20118;-70
2022/04/28 12:20:02;;;;;;;5.07;2.78;;;16.70;97.10;;;;;;5012660;28;20080;-69
2022/04/28 12:22:35;;;;;;;8.38;3.42;;;16.30;98.10;;;;;;5030764;28;20056;-70
2022/04/28 12:25:04;;;;;;;7.03;2.80;;;16.10;99.90;;;;;;5030690;28;20053;-70
2022/04/28 12:27:38;;;;;;;4.72;2.47;;;16.30;99.90;;;;;;5030577;28;20386;-69
2022/04/28 12:30:08;;;;;;;4.85;3.03;;;16.70;95.40;;;;;;5028604;28;20045;-70
2022/04/28 12:32:46;;;;;;;6.35;3.08;;;16.60;97.70;;;;;;5030617;28;20059;-70
2022/04/28 12:35:31;;;;;;;10.23;3.95;;;16.40;98.10;;;;;;5012332;28;20038;-70
2022/04/28 12:38:08;;;;;;;10.93;3.60;;;16.30;99.90;;;;;;5032771;28;20051;-70
2022/04/28 12:40:42;;;;;;;10.65;3.20;;;16.50;99.90;;;;;;5050360;28;20063;-69
2022/04/28 12:43:08;;;;;;;6.47;2.90;;;16.40;99.90;;;;;;5050238;28;20102;-69
2022/04/28 12:45:56;;;;;;;7.43;3.40;;;16.00;99.90;;;;;;5050178;28;20213;-70
2022/04/28 12:48:33;;;;;;;7.38;3.33;;;15.80;99.90;;;;;;5032672;28;20131;-70
2022/04/28 12:51:18;;;;;;;10.82;2.97;;;16.00;99.10;;;;;;5049897;28;20052;-70
2022/04/28 12:53:49;;;;;;;11.88;3.92;;;16.30;99.70;;;;;;5050119;28;20037;-70
2022/04/28 12:56:17;;;;;;;5.15;3.15;;;16.30;99.80;;;;;;5050160;28;20041;-70
2022/04/28 12:58:53;;;;;;;7.93;4.13;;;16.30;99.70;;;;;;5049883;28;20044;-70
2022/04/28 13:01:20;;;;;;;5.78;3.15;;;16.20;97.00;;;;;;5049962;28;20048;-70
2022/04/28 13:03:59;;;;;;;14.25;3.45;;;16.20;99.30;;;;;;5051700;28;20052;-69
2022/04/28 13:06:26;;;;;;;14.65;3.40;;;16.00;97.80;;;;;;5035881;28;20139;-70
2022/04/28 13:08:53;;;;;;;6.15;3.17;;;16.00;99.50;;;;;;5036253;28;20049;-70
2022/04/28 13:11:33;;;;;;;7.25;2.83;;;16.10;98.70;;;;;;5053588;28;20376;-69
2022/04/28 13:14:00;;;;;;;9.38;3.80;;;16.30;98.60;;;;;;5019518;28;20033;-79
2022/04/28 13:16:26;;;;;;;8.18;2.95;;;16.30;98.70;;;;;;5019459;28;20119;-79
2022/04/28 13:18:53;;;;;;;8.57;2.63;;;16.30;98.70;;;;;;5035497;28;20043;-78
2022/04/28 13:21:19;;;;;;;7.43;3.53;;;16.30;99.20;;;;;;5019638;28;20152;-78
2022/04/28 13:23:46;;;;;;;13.95;3.25;;;16.30;98.70;;;;;;5019217;28;20529;-78
2022/04/28 13:26:16;;;;;;;8.32;3.25;;;16.30;98.40;;;;;;5019525;28;20060;-78
2022/04/28 13:28:42;;;;;;;6.72;2.88;;;15.90;99.80;;;;;;5020188;28;20407;-79
2022/04/28 13:31:08;;;;;;;8.65;3.17;;;15.80;99.90;;;;;;5026356;28;20041;-78
2022/04/28 13:33:34;;;;;;;6.32;2.67;;;15.70;99.90;;;;;;5018983;28;20385;-78